createdAt,value
2017-09-10T00:01:14.912Z,12.80
2017-09-10T00:03:42.474Z,12.80
2017-09-10T00:06:10.019Z,12.80
2017-09-10T00:08:37.547Z,12.70
2017-09-10T00:11:05.124Z,12.80
2017-09-10T00:13:32.686Z,12.80
2017-09-10T00:16:00.251Z,12.80
2017-09-10T00:18:27.774Z,12.70
2017-09-10T00:20:55.583Z,12.70
2017-09-10T00:23:23.122Z,12.90
2017-09-10T00:25:50.941Z,12.80
2017-09-10T00:28:19.303Z,12.80
2017-09-10T00:30:47.630Z,12.80
2017-09-10T00:33:15.191Z,12.80
2017-09-10T00:35:42.721Z,12.80
2017-09-10T00:38:10.293Z,12.70
2017-09-10T00:40:37.851Z,12.70
2017-09-10T00:43:06.183Z,12.70
2017-09-10T00:45:33.721Z,12.70
2017-09-10T00:48:01.282Z,12.70
2017-09-10T00:50:28.815Z,12.60
2017-09-10T00:52:56.473Z,12.70
2017-09-10T00:55:24.048Z,12.70
2017-09-10T00:57:51.670Z,12.60
2017-09-10T01:00:19.235Z,12.60
2017-09-10T01:02:47.569Z,12.70
2017-09-10T01:05:15.863Z,12.80
2017-09-10T01:07:44.287Z,12.80
2017-09-10T01:10:11.845Z,12.80
2017-09-10T01:12:39.399Z,12.90
2017-09-10T01:15:06.921Z,12.80
2017-09-10T01:17:34.483Z,12.80
2017-09-10T01:20:02.051Z,12.80
2017-09-10T01:22:29.612Z,12.80
2017-09-10T01:24:57.227Z,12.80
2017-09-10T01:27:24.763Z,12.80
2017-09-10T01:29:52.341Z,12.80
2017-09-10T01:32:19.900Z,12.90
2017-09-10T01:34:47.498Z,12.90
2017-09-10T01:37:15.032Z,12.80
2017-09-10T01:39:42.592Z,12.70
2017-09-10T01:42:10.115Z,12.70
2017-09-10T01:44:37.772Z,12.70
2017-09-10T01:47:05.414Z,12.60
2017-09-10T01:49:32.983Z,12.80
2017-09-10T01:52:01.381Z,12.90
2017-09-10T01:54:29.082Z,12.90
2017-09-10T01:56:57.450Z,12.80
2017-09-10T01:59:25.070Z,12.80
2017-09-10T02:01:52.737Z,12.90
2017-09-10T02:04:21.126Z,12.80
2017-09-10T02:06:48.750Z,12.80
2017-09-10T02:09:16.362Z,12.80
2017-09-10T02:11:43.930Z,12.70
2017-09-10T02:14:11.532Z,12.80
2017-09-10T02:16:39.957Z,12.80
2017-09-10T02:19:07.608Z,12.80
2017-09-10T02:21:35.191Z,12.80
2017-09-10T02:24:03.597Z,12.80
2017-09-10T02:26:31.180Z,12.80
2017-09-10T02:28:58.904Z,12.80
2017-09-10T02:31:26.450Z,12.70
2017-09-10T02:33:54.052Z,12.70
2017-09-10T02:36:21.735Z,12.60
2017-09-10T02:38:49.308Z,12.50
2017-09-10T02:41:16.892Z,12.60
2017-09-10T02:43:44.576Z,12.60
2017-09-10T02:46:12.172Z,12.60
2017-09-10T02:48:39.778Z,12.60
2017-09-10T02:51:07.367Z,12.60
2017-09-10T02:53:35.708Z,12.50
2017-09-10T02:56:03.229Z,12.50
2017-09-10T02:58:30.868Z,12.50
2017-09-10T03:00:58.435Z,12.50
2017-09-10T03:03:26.023Z,12.60
2017-09-10T03:05:53.689Z,12.60
2017-09-10T03:08:21.487Z,12.60
2017-09-10T03:10:49.084Z,12.60
2017-09-10T03:13:16.720Z,12.60
2017-09-10T03:15:44.324Z,12.70
2017-09-10T03:18:11.921Z,12.60
2017-09-10T03:20:39.567Z,12.70
2017-09-10T03:23:07.233Z,12.60
2017-09-10T03:25:34.787Z,12.50
2017-09-10T03:28:02.387Z,12.50
2017-09-10T03:30:30.038Z,12.40
2017-09-10T03:32:57.683Z,12.40
2017-09-10T03:35:25.286Z,12.40
2017-09-10T03:37:52.922Z,12.40
2017-09-10T03:40:20.541Z,12.20
2017-09-10T03:42:48.132Z,12.10
2017-09-10T03:45:15.797Z,12.20
2017-09-10T03:47:44.188Z,12.30
2017-09-10T03:50:11.792Z,12.30
2017-09-10T03:52:39.425Z,12.30
2017-09-10T03:55:07.194Z,12.30
2017-09-10T03:57:35.888Z,12.30
2017-09-10T04:00:03.808Z,12.20
2017-09-10T04:02:31.467Z,12.20
2017-09-10T04:04:59.098Z,12.20
2017-09-10T04:07:26.723Z,12.30
2017-09-10T04:09:54.316Z,12.30
2017-09-10T04:12:22.710Z,12.30
2017-09-10T04:14:50.304Z,12.30
2017-09-10T04:17:17.960Z,12.30
2017-09-10T04:19:45.480Z,12.20
2017-09-10T04:22:13.130Z,12.10
2017-09-10T04:24:40.667Z,12.20
2017-09-10T04:27:08.258Z,12.10
2017-09-10T04:29:35.783Z,12.10
2017-09-10T04:32:03.395Z,12.10
2017-09-10T04:34:30.972Z,12.10
2017-09-10T04:36:58.591Z,11.90
2017-09-10T04:39:26.260Z,11.90
2017-09-10T04:41:53.881Z,11.80
2017-09-10T04:44:21.526Z,11.80
2017-09-10T04:46:49.174Z,11.90
2017-09-10T04:49:16.815Z,11.90
2017-09-10T04:51:44.416Z,12.00
2017-09-10T04:54:11.986Z,11.90
2017-09-10T04:56:39.581Z,11.90
2017-09-10T04:59:07.210Z,11.90
2017-09-10T05:01:34.804Z,11.90
2017-09-10T05:04:03.179Z,12.00
2017-09-10T05:06:31.511Z,11.90
2017-09-10T05:08:59.083Z,11.90
2017-09-10T05:11:27.492Z,12.00
2017-09-10T05:13:55.127Z,12.00
2017-09-10T05:16:22.690Z,12.00
2017-09-10T05:18:50.312Z,12.10
2017-09-10T05:21:17.908Z,12.10
2017-09-10T05:23:45.513Z,12.10
2017-09-10T05:26:13.050Z,12.20
2017-09-10T05:28:40.676Z,12.10
2017-09-10T05:31:08.991Z,12.00
2017-09-10T05:33:36.620Z,12.00
2017-09-10T05:36:04.163Z,12.00
2017-09-10T05:38:31.834Z,11.80
2017-09-10T05:40:59.417Z,12.00
2017-09-10T05:43:27.751Z,11.80
2017-09-10T05:45:55.388Z,11.80
2017-09-10T05:48:23.019Z,11.80
2017-09-10T05:50:50.666Z,11.80
2017-09-10T05:53:18.263Z,11.90
2017-09-10T05:55:46.679Z,11.90
2017-09-10T05:58:14.273Z,11.90
2017-09-10T06:00:41.869Z,12.00
2017-09-10T06:03:09.463Z,12.00
2017-09-10T06:05:37.807Z,12.00
2017-09-10T06:08:05.356Z,12.00
2017-09-10T06:10:32.935Z,12.00
2017-09-10T06:13:01.236Z,12.20
2017-09-10T06:15:28.810Z,12.20
2017-09-10T06:17:56.367Z,12.30
2017-09-10T06:20:23.936Z,12.50
2017-09-10T06:22:51.568Z,12.60
2017-09-10T06:25:21.117Z,12.90
2017-09-10T06:27:48.744Z,12.90
2017-09-10T06:30:16.394Z,13.00
2017-09-10T06:32:43.975Z,13.10
2017-09-10T06:35:11.602Z,13.20
2017-09-10T06:37:39.263Z,13.20
2017-09-10T06:40:06.907Z,13.20
2017-09-10T06:42:34.508Z,13.20
2017-09-10T06:45:02.220Z,13.30
2017-09-10T06:47:29.824Z,13.30
2017-09-10T06:49:57.507Z,13.30
2017-09-10T06:52:25.058Z,13.30
2017-09-10T06:54:52.630Z,13.30
2017-09-10T06:57:20.284Z,13.20
2017-09-10T06:59:48.653Z,13.50
2017-09-10T07:02:16.305Z,13.50
2017-09-10T07:04:43.892Z,13.60
2017-09-10T07:07:11.460Z,13.50
2017-09-10T07:09:39.006Z,13.60
2017-09-10T07:12:06.579Z,13.70
2017-09-10T07:14:34.135Z,13.60
2017-09-10T07:17:01.817Z,13.70
2017-09-10T07:19:29.384Z,13.70
2017-09-10T07:21:56.993Z,13.70
2017-09-10T07:24:24.641Z,13.80
2017-09-10T07:26:52.279Z,13.80
2017-09-10T07:29:19.840Z,14.00
2017-09-10T07:31:47.422Z,14.10
2017-09-10T07:34:14.980Z,14.20
2017-09-10T07:36:43.352Z,14.30
2017-09-10T07:39:10.948Z,14.30
2017-09-10T07:41:38.598Z,14.40
2017-09-10T07:44:06.942Z,14.40
2017-09-10T07:46:34.612Z,14.40
2017-09-10T07:49:02.202Z,14.50
2017-09-10T07:51:29.812Z,14.50
2017-09-10T07:53:57.449Z,14.60
2017-09-10T07:56:25.193Z,14.90
2017-09-10T07:58:52.744Z,15.20
2017-09-10T08:01:20.385Z,15.40
2017-09-10T08:03:47.964Z,15.50
2017-09-10T08:06:16.339Z,15.90
2017-09-10T08:08:44.635Z,16.10
2017-09-10T08:11:12.306Z,16.10
2017-09-10T08:13:39.902Z,16.10
2017-09-10T08:16:08.276Z,15.90
2017-09-10T08:18:35.950Z,15.90
2017-09-10T08:21:03.587Z,15.70
2017-09-10T08:23:31.243Z,15.50
2017-09-10T08:25:58.905Z,15.40
2017-09-10T08:28:26.657Z,15.40
2017-09-10T08:30:55.053Z,15.50
2017-09-10T08:33:23.468Z,15.70
2017-09-10T08:35:51.067Z,15.70
2017-09-10T08:38:18.692Z,15.90
2017-09-10T08:40:46.300Z,16.20
2017-09-10T08:43:13.923Z,16.10
2017-09-10T08:45:42.342Z,16.10
2017-09-10T08:48:09.944Z,16.10
2017-09-10T08:50:37.605Z,15.90
2017-09-10T08:53:05.202Z,16.00
2017-09-10T08:55:32.801Z,16.10
2017-09-10T08:58:00.401Z,16.30
2017-09-10T09:00:28.001Z,16.50
2017-09-10T09:02:55.657Z,16.70
2017-09-10T09:05:24.028Z,16.80
2017-09-10T09:07:52.500Z,16.80
2017-09-10T09:10:20.215Z,16.80
2017-09-10T09:12:47.846Z,16.80
2017-09-10T09:15:15.466Z,16.90
2017-09-10T09:17:43.061Z,16.90
2017-09-10T09:20:10.727Z,16.70
2017-09-10T09:22:38.372Z,16.70
2017-09-10T09:25:05.953Z,16.50
2017-09-10T09:27:34.395Z,16.50
2017-09-10T09:30:01.994Z,16.50
2017-09-10T09:32:29.650Z,16.60
2017-09-10T09:34:57.247Z,16.80
2017-09-10T09:37:24.883Z,17.00
2017-09-10T09:39:52.475Z,17.20
2017-09-10T09:42:22.154Z,17.50
2017-09-10T09:44:50.529Z,17.50
2017-09-10T09:47:18.109Z,17.50
2017-09-10T09:49:45.710Z,17.30
2017-09-10T09:52:14.243Z,17.60
2017-09-10T09:54:41.863Z,17.60
2017-09-10T09:57:09.452Z,17.60
2017-09-10T09:59:37.103Z,17.90
2017-09-10T10:02:04.660Z,17.90
2017-09-10T10:04:33.048Z,18.30
2017-09-10T10:07:00.620Z,18.30
2017-09-10T10:09:28.286Z,18.40
2017-09-10T10:11:55.918Z,18.30
2017-09-10T10:14:23.566Z,18.30
2017-09-10T10:16:51.109Z,17.90
2017-09-10T10:19:18.680Z,17.90
2017-09-10T10:21:46.239Z,17.80
2017-09-10T10:24:14.666Z,17.70
2017-09-10T10:26:42.267Z,17.70
2017-09-10T10:29:09.965Z,17.70
2017-09-10T10:31:37.487Z,17.80
2017-09-10T10:34:05.096Z,17.70
2017-09-10T10:36:32.631Z,17.80
2017-09-10T10:39:00.283Z,18.00
2017-09-10T10:41:28.693Z,18.10
2017-09-10T10:43:56.310Z,18.00
2017-09-10T10:46:24.651Z,18.00
2017-09-10T10:48:52.366Z,18.00
2017-09-10T10:51:19.997Z,18.20
2017-09-10T10:53:47.620Z,18.40
2017-09-10T10:56:15.198Z,18.60
2017-09-10T10:58:42.812Z,18.80
2017-09-10T11:01:10.429Z,18.90
2017-09-10T11:03:38.000Z,18.90
2017-09-10T11:06:05.605Z,19.00
2017-09-10T11:08:33.256Z,19.10
2017-09-10T11:11:01.646Z,19.30
2017-09-10T11:13:29.276Z,19.30
2017-09-10T11:15:56.815Z,19.20
2017-09-10T11:18:24.426Z,19.20
2017-09-10T11:20:52.038Z,18.90
2017-09-10T11:23:20.461Z,19.20
2017-09-10T11:25:48.008Z,19.20
2017-09-10T11:28:15.636Z,19.40
2017-09-10T11:30:43.234Z,19.70
2017-09-10T11:33:11.583Z,19.80
2017-09-10T11:35:39.176Z,19.80
2017-09-10T11:38:06.758Z,19.80
2017-09-10T11:40:35.924Z,19.70
2017-09-10T11:43:03.560Z,19.60
2017-09-10T11:45:31.166Z,19.60
2017-09-10T11:47:59.571Z,19.50
2017-09-10T11:50:27.128Z,19.50
2017-09-10T11:52:54.770Z,19.40
2017-09-10T11:55:22.384Z,19.30
2017-09-10T11:57:49.978Z,19.50
2017-09-10T12:00:17.544Z,19.80
2017-09-10T12:02:45.155Z,19.90
2017-09-10T12:05:12.776Z,20.00
2017-09-10T12:07:40.343Z,20.00
2017-09-10T12:10:07.949Z,19.70
2017-09-10T12:12:36.295Z,19.80
2017-09-10T12:15:03.941Z,19.80
2017-09-10T12:17:31.548Z,19.70
2017-09-10T12:19:59.193Z,19.60
2017-09-10T12:22:26.787Z,19.60
2017-09-10T12:24:55.199Z,19.70
2017-09-10T12:27:22.815Z,19.70
2017-09-10T12:29:50.441Z,19.80
2017-09-10T12:32:18.000Z,19.90
2017-09-10T12:34:46.421Z,20.20
2017-09-10T12:37:13.968Z,20.20
2017-09-10T12:39:41.595Z,20.30
2017-09-10T12:42:09.189Z,20.30
2017-09-10T12:44:36.810Z,20.40
2017-09-10T12:47:04.417Z,20.40
2017-09-10T12:49:32.074Z,20.30
2017-09-10T12:51:59.628Z,20.40
2017-09-10T12:54:27.258Z,20.40
2017-09-10T12:56:54.858Z,20.60
2017-09-10T12:59:22.524Z,20.60
2017-09-10T13:01:50.125Z,20.70
2017-09-10T13:04:17.791Z,20.50
2017-09-10T13:06:45.402Z,20.60
2017-09-10T13:09:12.983Z,20.70
2017-09-10T13:11:40.573Z,20.60
2017-09-10T13:14:08.154Z,20.80
2017-09-10T13:16:35.717Z,20.70
2017-09-10T13:19:03.315Z,20.70
2017-09-10T13:21:30.876Z,20.70
2017-09-10T13:23:58.537Z,20.80
2017-09-10T13:26:26.154Z,20.70
2017-09-10T13:28:53.770Z,20.80
2017-09-10T13:31:21.351Z,20.80
2017-09-10T13:33:48.970Z,20.80
2017-09-10T13:36:17.336Z,21.00
2017-09-10T13:38:45.699Z,21.10
2017-09-10T13:41:14.050Z,20.70
2017-09-10T13:43:41.646Z,20.70
2017-09-10T13:46:09.231Z,20.80
2017-09-10T13:48:36.817Z,21.00
2017-09-10T13:51:04.442Z,20.90
2017-09-10T13:53:32.801Z,21.10
2017-09-10T13:56:00.440Z,21.00
2017-09-10T13:58:27.997Z,21.00
2017-09-10T14:00:56.337Z,21.30
2017-09-10T14:03:23.924Z,21.20
2017-09-10T14:05:51.569Z,21.50
2017-09-10T14:08:19.922Z,21.70
2017-09-10T14:10:48.295Z,21.70
2017-09-10T14:13:16.650Z,21.60
2017-09-10T14:15:44.302Z,21.60
2017-09-10T14:18:12.612Z,21.80
2017-09-10T14:20:40.192Z,21.80
2017-09-10T14:23:07.772Z,21.90
2017-09-10T14:25:35.398Z,22.10
2017-09-10T14:28:03.775Z,21.90
2017-09-10T14:30:32.202Z,21.90
2017-09-10T14:32:59.739Z,21.90
2017-09-10T14:35:27.405Z,21.90
2017-09-10T14:37:55.009Z,22.00
2017-09-10T14:40:22.574Z,22.30
2017-09-10T14:42:50.189Z,22.60
2017-09-10T14:45:17.835Z,23.00
2017-09-10T14:47:45.373Z,24.00
2017-09-10T14:50:12.947Z,24.90
2017-09-10T14:52:40.542Z,25.70
2017-09-10T14:55:08.899Z,26.70
2017-09-10T14:57:36.502Z,26.70
2017-09-10T15:00:04.185Z,26.80
2017-09-10T15:02:31.804Z,25.70
2017-09-10T15:04:59.378Z,24.80
2017-09-10T15:07:27.003Z,24.20
2017-09-10T15:09:54.629Z,23.70
2017-09-10T15:12:22.273Z,23.00
2017-09-10T15:14:50.664Z,22.50
2017-09-10T15:17:18.341Z,22.10
2017-09-10T15:19:46.006Z,21.60
2017-09-10T15:22:14.414Z,20.90
2017-09-10T15:24:42.006Z,20.80
2017-09-10T15:27:10.445Z,20.20
2017-09-10T15:29:38.139Z,20.20
2017-09-10T15:32:05.800Z,19.80
2017-09-10T15:34:33.421Z,19.60
2017-09-10T15:37:01.089Z,19.50
2017-09-10T15:39:28.698Z,19.30
2017-09-10T15:41:56.364Z,19.00
2017-09-10T15:44:23.941Z,18.70
2017-09-10T15:46:51.569Z,18.60
2017-09-10T15:49:19.201Z,18.60
2017-09-10T15:51:47.557Z,18.40
2017-09-10T15:54:15.897Z,18.10
2017-09-10T15:56:43.537Z,18.10
2017-09-10T15:59:11.132Z,18.00
2017-09-10T16:01:38.704Z,17.90
2017-09-10T16:04:06.314Z,17.70
2017-09-10T16:06:34.740Z,17.60
2017-09-10T16:09:02.414Z,17.60
2017-09-10T16:11:29.996Z,17.40
2017-09-10T16:13:57.611Z,17.30
2017-09-10T16:16:25.175Z,17.20
2017-09-10T16:18:52.827Z,17.00
2017-09-10T16:21:20.446Z,17.00
2017-09-10T16:23:48.866Z,16.80
2017-09-10T16:26:16.451Z,16.80
2017-09-10T16:28:44.837Z,16.60
2017-09-10T16:31:13.186Z,16.50
2017-09-10T16:33:41.579Z,16.40
2017-09-10T16:36:09.159Z,16.40
2017-09-10T16:38:36.719Z,16.40
2017-09-10T16:41:04.356Z,16.40
2017-09-10T16:43:31.983Z,16.20
2017-09-10T16:45:59.540Z,16.10
2017-09-10T16:48:27.195Z,16.10
2017-09-10T16:50:54.729Z,16.10
2017-09-10T16:53:22.377Z,16.00
2017-09-10T16:55:50.003Z,15.70
2017-09-10T16:58:17.544Z,15.70
2017-09-10T17:00:45.226Z,15.70
2017-09-10T17:03:13.527Z,15.50
2017-09-10T17:05:41.918Z,15.60
2017-09-10T17:08:09.454Z,15.60
2017-09-10T17:10:37.032Z,15.50
2017-09-10T17:13:04.593Z,15.40
2017-09-10T17:15:32.233Z,15.30
2017-09-10T17:17:59.824Z,15.10
2017-09-10T17:20:28.238Z,15.20
2017-09-10T17:22:56.781Z,15.20
2017-09-10T17:25:24.383Z,15.10
2017-09-10T17:27:51.993Z,15.00
2017-09-10T17:30:19.631Z,14.90
2017-09-10T17:32:47.244Z,14.90
2017-09-10T17:35:15.578Z,14.70
2017-09-10T17:37:43.146Z,14.70
2017-09-10T17:40:11.613Z,14.70
2017-09-10T17:42:39.939Z,14.70
2017-09-10T17:45:07.518Z,14.60
2017-09-10T17:47:35.993Z,14.40
2017-09-10T17:50:03.583Z,14.30
2017-09-10T17:52:31.179Z,14.30
2017-09-10T17:54:59.578Z,14.00
2017-09-10T17:57:27.210Z,14.00
2017-09-10T17:59:54.945Z,13.90
2017-09-10T18:02:22.552Z,13.90
2017-09-10T18:04:50.192Z,13.90
2017-09-10T18:07:17.760Z,13.80
2017-09-10T18:09:45.398Z,13.80
2017-09-10T18:12:13.856Z,13.70
2017-09-10T18:14:41.477Z,13.70
2017-09-10T18:17:09.055Z,13.90
2017-09-10T18:19:36.642Z,13.70
2017-09-10T18:22:05.049Z,13.60
2017-09-10T18:24:32.664Z,13.60
2017-09-10T18:27:00.227Z,13.60
2017-09-10T18:29:27.885Z,13.60
2017-09-10T18:31:55.481Z,13.40
2017-09-10T18:34:23.852Z,13.40
2017-09-10T18:36:51.561Z,13.40
2017-09-10T18:39:19.139Z,13.40
2017-09-10T18:41:46.770Z,13.30
2017-09-10T18:44:14.462Z,13.30
2017-09-10T18:46:42.790Z,13.30
2017-09-10T18:49:10.386Z,13.30
2017-09-10T18:51:38.032Z,13.20
2017-09-10T18:54:05.620Z,13.20
2017-09-10T18:56:33.149Z,13.20
2017-09-10T18:59:00.764Z,13.10
2017-09-10T19:01:28.363Z,13.10
2017-09-10T19:03:55.950Z,13.10
2017-09-10T19:06:23.511Z,13.00
2017-09-10T19:08:51.144Z,12.90
2017-09-10T19:11:18.717Z,12.90
2017-09-10T19:13:46.345Z,12.80
2017-09-10T19:16:13.910Z,12.70
2017-09-10T19:18:41.503Z,12.70
2017-09-10T19:21:09.835Z,12.70
2017-09-10T19:23:37.424Z,12.70
2017-09-10T19:26:05.056Z,12.70
2017-09-10T19:28:33.396Z,12.50
2017-09-10T19:31:01.125Z,12.50
2017-09-10T19:33:28.690Z,12.50
2017-09-10T19:35:57.102Z,12.50
2017-09-10T19:38:24.756Z,12.50
2017-09-10T19:40:52.377Z,12.50
2017-09-10T19:43:20.688Z,12.40
2017-09-10T19:45:48.309Z,12.30
2017-09-10T19:48:15.884Z,12.30
2017-09-10T19:50:43.526Z,12.30
2017-09-10T19:53:11.077Z,12.20
2017-09-10T19:55:38.664Z,12.20
2017-09-10T19:58:07.060Z,12.20
2017-09-10T20:00:34.636Z,12.20
2017-09-10T20:03:02.269Z,12.20
2017-09-10T20:05:29.885Z,12.20
2017-09-10T20:07:57.578Z,12.20
2017-09-10T20:10:25.214Z,12.20
2017-09-10T20:12:52.801Z,12.20
2017-09-10T20:15:21.195Z,12.10
2017-09-10T20:17:48.809Z,12.00
2017-09-10T20:20:17.201Z,12.00
2017-09-10T20:22:44.806Z,12.00
2017-09-10T20:25:12.436Z,11.90
2017-09-10T20:27:40.067Z,11.80
2017-09-10T20:30:07.607Z,11.70
2017-09-10T20:32:35.251Z,11.70
2017-09-10T20:35:02.819Z,11.70
2017-09-10T20:37:30.354Z,11.70
2017-09-10T20:39:57.969Z,11.70
2017-09-10T20:42:25.563Z,11.70
2017-09-10T20:44:53.225Z,11.70
2017-09-10T20:47:20.924Z,11.70
2017-09-10T20:49:48.483Z,11.60
2017-09-10T20:52:16.096Z,11.60
2017-09-10T20:54:43.669Z,11.60
2017-09-10T20:57:11.982Z,11.60
2017-09-10T20:59:39.706Z,11.60
2017-09-10T21:02:07.314Z,11.60
2017-09-10T21:04:34.905Z,11.50
2017-09-10T21:07:02.503Z,11.50
2017-09-10T21:09:30.135Z,11.30
2017-09-10T21:11:58.619Z,11.20
2017-09-10T21:14:26.254Z,11.20
2017-09-10T21:16:53.848Z,11.20
2017-09-10T21:19:21.792Z,11.20
2017-09-10T21:21:49.400Z,11.40
2017-09-10T21:24:17.092Z,11.40
2017-09-10T21:26:45.319Z,11.20
2017-09-10T21:29:12.933Z,11.20
2017-09-10T21:31:41.267Z,11.10
2017-09-10T21:34:08.841Z,11.00
2017-09-10T21:36:36.393Z,11.10
2017-09-10T21:39:04.001Z,11.10
2017-09-10T21:41:31.566Z,11.10
2017-09-10T21:43:59.135Z,11.10
2017-09-10T21:46:27.462Z,11.10
2017-09-10T21:48:55.079Z,11.10
2017-09-10T21:51:22.629Z,11.00
2017-09-10T21:53:50.220Z,11.00
2017-09-10T21:56:18.000Z,11.00
2017-09-10T21:58:45.699Z,10.90
2017-09-10T22:01:13.252Z,11.00
2017-09-10T22:03:40.822Z,11.00
2017-09-10T22:06:09.203Z,11.00
2017-09-10T22:08:36.766Z,11.00
2017-09-10T22:11:04.382Z,11.00
2017-09-10T22:13:32.670Z,11.20
2017-09-10T22:16:00.271Z,11.10
2017-09-10T22:18:27.798Z,11.20
2017-09-10T22:20:55.367Z,11.10
2017-09-10T22:23:23.803Z,11.10
2017-09-10T22:25:51.394Z,11.00
2017-09-10T22:28:19.743Z,11.10
2017-09-10T22:30:47.348Z,11.10
2017-09-10T22:33:14.889Z,11.10
2017-09-10T22:35:42.460Z,11.10
2017-09-10T22:38:10.006Z,11.10
2017-09-10T22:40:37.587Z,11.10
2017-09-10T22:43:05.154Z,11.10
2017-09-10T22:45:33.952Z,11.20
2017-09-10T22:48:01.915Z,11.20
2017-09-10T22:50:29.511Z,11.20
2017-09-10T22:52:57.915Z,11.20
2017-09-10T22:55:25.492Z,11.20
2017-09-10T22:57:53.060Z,11.10
2017-09-10T23:00:21.419Z,11.20
2017-09-10T23:02:49.729Z,11.20
2017-09-10T23:05:17.294Z,11.20
2017-09-10T23:07:44.896Z,11.30
2017-09-10T23:10:12.427Z,11.40
2017-09-10T23:12:39.999Z,11.30
2017-09-10T23:15:07.534Z,11.30
2017-09-10T23:17:35.153Z,11.30
2017-09-10T23:20:03.495Z,11.20
2017-09-10T23:22:31.046Z,11.20
2017-09-10T23:24:58.647Z,11.30
2017-09-10T23:27:26.218Z,11.30
2017-09-10T23:29:53.809Z,11.30
2017-09-10T23:32:21.390Z,11.30
2017-09-10T23:34:48.988Z,11.30
2017-09-10T23:37:17.313Z,11.40
2017-09-10T23:39:44.878Z,11.40
2017-09-10T23:42:12.483Z,11.40
2017-09-10T23:44:40.017Z,11.40
2017-09-10T23:47:07.600Z,11.40
2017-09-10T23:49:35.158Z,11.40
2017-09-10T23:52:02.744Z,11.40
2017-09-10T23:54:30.328Z,11.40
2017-09-10T23:56:57.931Z,11.30
2017-09-10T23:59:25.497Z,11.30
